Burnet's Hourly Summary for Thursday, July 5, 2018
Hour Temp
(f)
RH
(%)
Solar Rad.
(MJ/m2)
Rainfall
(in)
Wind
(mph)
7/5/2018 12:00 AM 72 99 0 0 5.04
7/5/2018 1:00 AM 71 97 0 0 5.62
7/5/2018 2:00 AM 70 95 0 0 4.88
7/5/2018 3:00 AM 70 94 0 0 5.27
7/5/2018 4:00 AM 69 94 0 0 4.81
7/5/2018 5:00 AM 69 93 0 0 3.5
7/5/2018 6:00 AM 69 94 0 0 6.31
7/5/2018 7:00 AM 70 95 0 0 6.59
7/5/2018 8:00 AM 71 95 0.12 0 6.1
7/5/2018 9:00 AM 73 92 0.34 0 5.09
7/5/2018 10:00 AM 76 84 1.04 0 4.61
7/5/2018 11:00 AM 78 78 0.9 0 3.52
7/5/2018 12:00 PM 80 70 1.16 0 3.66
7/5/2018 1:00 PM 82 67 1.68 0 5.4
7/5/2018 2:00 PM 85 56 1.93 0 4.83
7/5/2018 3:00 PM 86 46 1.7 0 5.21
7/5/2018 4:00 PM 87 46 1.24 0 4.45
7/5/2018 5:00 PM 89 39 1.46 0 5.21
7/5/2018 6:00 PM 89 39 1.99 0 4.84
7/5/2018 7:00 PM 89 41 1.32 0 4.36
7/5/2018 8:00 PM 88 41 0.55 0 3.2
7/5/2018 9:00 PM 86 57 0.07 0 0.97
7/5/2018 10:00 PM 79 67 0 0 0.61
7/5/2018 11:00 PM 77 75 0 0 0.43
Data Summary 78 73 15.50 0.00 4.35